createdAt,value
2022-08-31T00:01:37.741Z,79.86
2022-08-31T00:04:06.113Z,79.53
2022-08-31T00:06:35.945Z,79.35
2022-08-31T00:09:05.843Z,79.32
2022-08-31T00:11:36.256Z,79.65
2022-08-31T00:14:13.389Z,79.59
2022-08-31T00:16:44.525Z,79.76
2022-08-31T00:19:12.557Z,79.73
2022-08-31T00:21:40.464Z,79.86
2022-08-31T00:24:08.595Z,79.57
2022-08-31T00:26:36.850Z,79.43
2022-08-31T00:29:05.633Z,78.70
2022-08-31T00:31:33.305Z,78.45
2022-08-31T00:34:00.925Z,78.76
2022-08-31T00:36:28.701Z,77.85
2022-08-31T00:38:57.206Z,77.58
2022-08-31T00:41:30.401Z,78.68
2022-08-31T00:44:03.182Z,78.75
2022-08-31T00:46:42.186Z,78.64
2022-08-31T00:49:19.351Z,79.00
2022-08-31T00:52:02.275Z,79.73
2022-08-31T00:54:44.370Z,79.95
2022-08-31T00:57:13.605Z,80.01
2022-08-31T00:59:44.565Z,80.46
2022-08-31T01:02:12.185Z,80.85
2022-08-31T01:04:40.127Z,81.63
2022-08-31T01:07:08.937Z,81.61
2022-08-31T01:09:41.329Z,82.12
2022-08-31T01:12:24.353Z,82.75
2022-08-31T01:14:52.375Z,82.13
2022-08-31T01:17:22.166Z,82.37
2022-08-31T01:20:12.513Z,84.12
2022-08-31T01:22:56.184Z,85.63
2022-08-31T01:25:24.488Z,87.24
2022-08-31T01:28:04.727Z,87.42
2022-08-31T01:30:33.295Z,88.67
2022-08-31T01:33:01.331Z,88.91
2022-08-31T01:35:29.737Z,89.59
2022-08-31T01:37:58.839Z,88.47
2022-08-31T01:40:38.003Z,88.10
2022-08-31T01:43:05.902Z,88.29
2022-08-31T01:45:33.383Z,88.52
2022-08-31T01:48:02.108Z,88.96
2022-08-31T01:50:30.208Z,89.16
2022-08-31T01:52:58.857Z,89.56
2022-08-31T01:55:27.120Z,91.12
2022-08-31T01:57:58.846Z,90.97
2022-08-31T02:01:03.145Z,90.80
2022-08-31T02:03:43.938Z,90.75
2022-08-31T02:06:13.887Z,90.93
2022-08-31T02:08:41.913Z,91.50
2022-08-31T02:11:09.794Z,91.87
2022-08-31T02:13:37.805Z,91.91
2022-08-31T02:16:06.517Z,92.18
2022-08-31T02:18:35.998Z,92.26
2022-08-31T02:21:05.719Z,92.93
2022-08-31T02:23:33.519Z,94.01
2022-08-31T02:26:01.496Z,93.00
2022-08-31T02:28:29.421Z,92.82
2022-08-31T02:30:57.156Z,92.75
2022-08-31T02:33:25.612Z,93.67
2022-08-31T02:35:53.850Z,93.49
2022-08-31T02:38:24.978Z,93.26
2022-08-31T02:40:54.643Z,93.00
2022-08-31T02:43:24.559Z,93.76
2022-08-31T02:45:54.653Z,93.70
2022-08-31T02:48:27.939Z,94.00
2022-08-31T02:51:02.617Z,94.22
2022-08-31T02:53:30.375Z,95.14
2022-08-31T02:55:57.964Z,95.75
2022-08-31T02:58:25.533Z,95.82
2022-08-31T03:00:54.187Z,96.41
2022-08-31T03:03:22.063Z,97.50
2022-08-31T03:05:50.446Z,98.57
2022-08-31T03:08:18.810Z,98.76
2022-08-31T03:10:49.680Z,98.40
2022-08-31T03:13:18.487Z,99.03
2022-08-31T03:15:46.584Z,98.90
2022-08-31T03:18:17.165Z,97.08
2022-08-31T03:20:44.851Z,97.43
2022-08-31T03:23:12.850Z,96.91
2022-08-31T03:25:41.105Z,96.36
2022-08-31T03:28:08.971Z,96.40
2022-08-31T03:30:41.476Z,96.45
2022-08-31T03:33:11.908Z,96.12
2022-08-31T03:35:44.081Z,95.50
2022-08-31T03:38:15.962Z,95.05
2022-08-31T03:40:45.153Z,94.86
2022-08-31T03:43:14.785Z,94.77
2022-08-31T03:45:44.162Z,94.50
2022-08-31T03:48:13.283Z,94.32
2022-08-31T03:50:44.229Z,93.97
2022-08-31T03:53:23.154Z,93.41
2022-08-31T03:56:01.731Z,93.94
2022-08-31T03:58:32.658Z,93.67
2022-08-31T04:01:01.576Z,93.58
2022-08-31T04:04:01.992Z,93.38
2022-08-31T04:07:01.424Z,94.39
2022-08-31T04:09:49.338Z,94.05
2022-08-31T04:12:43.076Z,94.75
2022-08-31T04:15:30.818Z,94.32
2022-08-31T04:18:30.971Z,94.43
2022-08-31T04:20:58.746Z,94.34
2022-08-31T04:23:29.436Z,94.50
2022-08-31T04:25:58.950Z,94.24
2022-08-31T04:28:27.061Z,95.63
2022-08-31T04:30:56.104Z,95.02
2022-08-31T04:33:24.018Z,95.13
2022-08-31T04:35:52.452Z,95.20
2022-08-31T04:38:20.286Z,94.58
2022-08-31T04:40:48.483Z,94.49
2022-08-31T04:43:20.170Z,94.33
2022-08-31T04:45:52.145Z,94.72
2022-08-31T04:48:19.721Z,94.78
2022-08-31T04:50:50.676Z,94.52
2022-08-31T04:53:18.670Z,94.19
2022-08-31T04:55:46.294Z,93.89
2022-08-31T04:58:14.256Z,94.18
2022-08-31T05:00:45.146Z,94.96
2022-08-31T05:03:15.992Z,95.56
2022-08-31T05:05:47.090Z,95.10
2022-08-31T05:08:14.988Z,95.03
2022-08-31T05:10:44.561Z,95.74
2022-08-31T05:13:12.775Z,96.16
2022-08-31T05:15:43.728Z,94.54
2022-08-31T05:18:14.950Z,95.18
2022-08-31T05:20:49.533Z,95.30
2022-08-31T05:23:19.082Z,95.39
2022-08-31T05:25:47.102Z,95.22
2022-08-31T05:28:17.835Z,94.19
2022-08-31T05:30:45.712Z,93.80
2022-08-31T05:33:29.467Z,93.28
2022-08-31T05:36:00.992Z,93.64
2022-08-31T05:38:28.859Z,92.85
2022-08-31T05:40:58.736Z,93.06
2022-08-31T05:43:27.709Z,92.87
2022-08-31T05:45:58.699Z,92.61
2022-08-31T05:48:29.878Z,91.64
2022-08-31T05:51:02.791Z,91.30
2022-08-31T05:53:31.805Z,90.94
2022-08-31T05:56:10.631Z,90.68
2022-08-31T05:58:40.855Z,89.96
2022-08-31T06:01:30.843Z,88.60
2022-08-31T06:04:08.833Z,88.22
2022-08-31T06:06:37.370Z,87.98
2022-08-31T06:09:07.736Z,87.68
2022-08-31T06:11:38.372Z,87.36
2022-08-31T06:14:06.625Z,86.82
2022-08-31T06:16:36.613Z,85.94
2022-08-31T06:19:07.319Z,84.77
2022-08-31T06:21:49.766Z,85.02
2022-08-31T06:24:22.637Z,84.82
2022-08-31T06:26:58.568Z,84.39
2022-08-31T06:29:34.798Z,84.23
2022-08-31T06:32:11.098Z,84.08
2022-08-31T06:34:50.148Z,83.60
2022-08-31T06:37:40.930Z,83.27
2022-08-31T06:40:40.680Z,81.46
2022-08-31T06:43:27.740Z,82.10
2022-08-31T06:46:00.736Z,82.83
2022-08-31T06:48:48.401Z,81.15
2022-08-31T06:51:16.589Z,81.04
2022-08-31T06:53:45.407Z,81.83
2022-08-31T06:56:35.145Z,81.57
2022-08-31T06:59:28.218Z,81.37
2022-08-31T07:02:15.307Z,81.28
2022-08-31T07:04:43.123Z,81.48
2022-08-31T07:07:11.646Z,81.01
2022-08-31T07:09:42.132Z,81.06
2022-08-31T07:12:11.249Z,81.01
2022-08-31T07:14:38.948Z,81.76
2022-08-31T07:17:08.391Z,81.46
2022-08-31T07:19:36.026Z,81.52
2022-08-31T07:22:09.290Z,81.29
2022-08-31T07:24:42.910Z,81.55
2022-08-31T07:27:16.598Z,81.40
2022-08-31T07:30:04.754Z,81.37
2022-08-31T07:32:34.546Z,81.85
2022-08-31T07:35:03.045Z,82.09
2022-08-31T07:37:50.288Z,82.48
2022-08-31T07:40:41.149Z,82.87
2022-08-31T07:43:11.713Z,81.69
2022-08-31T07:45:42.261Z,82.32
2022-08-31T07:48:15.472Z,82.94
2022-08-31T07:50:57.572Z,82.60
2022-08-31T07:53:48.438Z,83.79
2022-08-31T07:56:34.102Z,84.20
2022-08-31T07:59:11.386Z,84.49
2022-08-31T08:01:41.362Z,83.50
2022-08-31T08:04:20.122Z,83.48
2022-08-31T08:07:12.946Z,83.77
2022-08-31T08:10:01.154Z,83.86
2022-08-31T08:13:04.227Z,84.13
2022-08-31T08:15:52.549Z,82.91
2022-08-31T08:35:02.207Z,79.75
2022-08-31T08:37:47.792Z,77.67
2022-08-31T08:40:42.445Z,77.01
2022-08-31T08:43:18.272Z,75.76
2022-08-31T08:45:52.898Z,75.63
2022-08-31T08:48:32.768Z,75.11
2022-08-31T08:51:04.375Z,74.98
2022-08-31T08:53:46.486Z,74.77
2022-08-31T08:56:35.533Z,73.81
2022-08-31T08:59:09.923Z,73.57
2022-08-31T09:01:44.036Z,73.72
2022-08-31T09:04:26.020Z,73.03
2022-08-31T09:07:31.021Z,74.37
2022-08-31T09:10:39.136Z,71.70
2022-08-31T09:13:31.853Z,70.80
2022-08-31T09:16:48.179Z,70.57
2022-08-31T09:19:19.500Z,69.75
2022-08-31T09:21:57.154Z,69.89
2022-08-31T09:24:29.178Z,67.94
2022-08-31T09:27:50.951Z,64.45
2022-08-31T09:30:45.091Z,65.48
2022-08-31T09:33:33.808Z,66.90
2022-08-31T09:36:22.542Z,69.53
2022-08-31T09:38:50.457Z,69.76
2022-08-31T09:41:30.738Z,69.40
2022-08-31T09:44:35.082Z,69.04
2022-08-31T09:47:27.242Z,70.09
2022-08-31T09:49:57.785Z,67.89
2022-08-31T09:52:47.670Z,66.28
2022-08-31T09:55:24.880Z,66.10
2022-08-31T09:58:04.401Z,66.29
2022-08-31T10:00:42.769Z,64.63
2022-08-31T10:03:21.014Z,65.43
2022-08-31T10:05:54.605Z,65.10
2022-08-31T10:08:28.239Z,62.99
2022-08-31T10:10:58.691Z,62.06
2022-08-31T10:13:57.813Z,60.78
2022-08-31T10:16:30.533Z,62.54
2022-08-31T10:19:22.559Z,60.53
2022-08-31T10:21:57.024Z,58.38
2022-08-31T10:24:33.544Z,57.30
2022-08-31T10:27:32.310Z,56.84
2022-08-31T10:30:06.884Z,56.07
2022-08-31T10:32:44.032Z,56.47
2022-08-31T10:35:37.560Z,57.27
2022-08-31T10:38:40.837Z,55.45
2022-08-31T10:41:17.329Z,53.81
2022-08-31T10:44:18.278Z,52.68
2022-08-31T10:46:50.424Z,52.48
2022-08-31T10:49:20.819Z,51.53
2022-08-31T10:52:29.409Z,50.56
2022-08-31T10:55:30.617Z,50.70
2022-08-31T10:58:44.276Z,49.25
2022-08-31T11:01:44.390Z,50.28
2022-08-31T11:04:59.253Z,51.17
2022-08-31T11:07:58.101Z,52.53
2022-08-31T11:10:57.316Z,53.88
2022-08-31T11:14:14.852Z,51.94
2022-08-31T11:17:19.049Z,53.00
2022-08-31T11:20:08.835Z,52.10
2022-08-31T11:23:14.535Z,49.31
2022-08-31T11:26:07.848Z,49.88
2022-08-31T11:28:48.274Z,50.94
2022-08-31T11:31:25.365Z,49.10
2022-08-31T11:34:15.696Z,48.22
2022-08-31T11:36:54.819Z,48.13
2022-08-31T11:39:35.655Z,47.19
2022-08-31T11:42:22.691Z,46.38
2022-08-31T11:45:07.434Z,47.91
2022-08-31T11:47:42.170Z,46.21
2022-08-31T11:51:03.482Z,45.70
2022-08-31T11:53:44.261Z,45.35
2022-08-31T11:56:14.497Z,43.17
2022-08-31T11:58:53.352Z,44.03
2022-08-31T12:01:35.799Z,45.34
2022-08-31T12:04:04.026Z,44.66
2022-08-31T12:06:37.285Z,42.36
2022-08-31T12:09:38.221Z,43.18
2022-08-31T12:12:57.235Z,42.97
2022-08-31T12:15:36.744Z,41.22
2022-08-31T12:18:17.054Z,41.56
2022-08-31T12:21:20.302Z,38.94
2022-08-31T12:23:56.316Z,38.94
2022-08-31T12:26:58.188Z,39.29
2022-08-31T12:29:43.943Z,39.89
2022-08-31T12:32:40.492Z,39.04
2022-08-31T12:35:18.076Z,40.21
2022-08-31T12:38:04.866Z,38.54
2022-08-31T12:40:48.213Z,38.50
2022-08-31T12:43:18.743Z,38.31
2022-08-31T12:45:58.335Z,38.85
2022-08-31T12:49:02.885Z,37.72
2022-08-31T12:52:08.587Z,37.36
2022-08-31T12:54:47.888Z,37.84
2022-08-31T12:58:03.934Z,38.57
2022-08-31T13:00:39.473Z,39.62
2022-08-31T13:03:29.279Z,40.37
2022-08-31T13:06:05.843Z,40.66
2022-08-31T13:08:46.416Z,40.89
2022-08-31T13:11:35.282Z,43.39
2022-08-31T13:14:20.742Z,45.64
2022-08-31T13:16:53.610Z,47.25
2022-08-31T13:19:25.918Z,47.38
2022-08-31T13:22:07.642Z,48.24
2022-08-31T13:24:42.036Z,49.03
2022-08-31T13:27:25.686Z,49.19
2022-08-31T13:29:59.419Z,50.57
2022-08-31T13:32:32.984Z,51.19
2022-08-31T13:35:11.649Z,51.67
2022-08-31T13:38:05.364Z,52.52
2022-08-31T13:40:39.716Z,52.81
2022-08-31T13:43:10.792Z,53.32
2022-08-31T13:45:57.855Z,53.61
2022-08-31T13:48:40.627Z,54.01
2022-08-31T13:51:17.168Z,53.99
2022-08-31T13:53:53.992Z,53.98
2022-08-31T13:56:52.499Z,53.81
2022-08-31T13:59:26.768Z,53.85
2022-08-31T14:02:18.658Z,53.86
2022-08-31T14:04:58.055Z,51.21
2022-08-31T14:07:28.493Z,50.69
2022-08-31T14:10:15.107Z,50.81
2022-08-31T14:12:47.561Z,50.28
2022-08-31T14:15:17.554Z,47.88
2022-08-31T14:21:24.130Z,45.24
2022-08-31T14:24:01.434Z,44.77
2022-08-31T14:26:37.121Z,43.52
2022-08-31T14:29:12.474Z,44.35
2022-08-31T14:31:55.051Z,44.67
2022-08-31T14:34:28.170Z,43.71
2022-08-31T14:37:06.472Z,42.83
2022-08-31T14:39:36.165Z,43.23
2022-08-31T14:42:18.707Z,43.59
2022-08-31T14:44:58.149Z,42.20
2022-08-31T14:47:33.040Z,39.38
2022-08-31T14:50:09.305Z,38.48
2022-08-31T14:52:41.678Z,38.88
2022-08-31T14:55:11.306Z,38.19
2022-08-31T14:57:45.693Z,36.41
2022-08-31T15:00:21.941Z,37.17
2022-08-31T15:02:53.531Z,35.18
2022-08-31T15:05:24.835Z,35.68
2022-08-31T15:07:55.107Z,33.98
2022-08-31T15:10:25.701Z,33.84
2022-08-31T15:12:54.211Z,34.80
2022-08-31T15:15:21.980Z,34.14
2022-08-31T15:17:51.765Z,33.37
2022-08-31T15:20:22.948Z,34.09
2022-08-31T15:22:50.993Z,35.24
2022-08-31T15:25:20.718Z,35.84
2022-08-31T15:27:49.456Z,37.93
2022-08-31T15:30:19.955Z,38.15
2022-08-31T15:32:48.798Z,38.35
2022-08-31T15:35:23.474Z,38.32
2022-08-31T15:37:58.950Z,38.61
2022-08-31T15:40:35.512Z,37.50
2022-08-31T15:43:09.545Z,37.48
2022-08-31T15:45:37.679Z,37.10
2022-08-31T15:48:24.000Z,37.02
2022-08-31T15:51:00.447Z,37.64
2022-08-31T15:53:29.485Z,38.39
2022-08-31T15:56:07.676Z,39.17
2022-08-31T15:58:39.058Z,39.82
2022-08-31T16:01:14.071Z,39.05
2022-08-31T16:03:48.695Z,38.01
2022-08-31T16:06:16.542Z,36.78
2022-08-31T16:08:44.032Z,37.02
2022-08-31T16:11:12.405Z,37.98
2022-08-31T16:13:49.219Z,37.74
2022-08-31T16:16:20.406Z,38.58
2022-08-31T16:18:51.712Z,37.63
2022-08-31T16:21:21.923Z,36.78
2022-08-31T16:24:01.219Z,37.28
2022-08-31T16:26:32.415Z,37.20
2022-08-31T16:29:02.960Z,38.63
2022-08-31T16:31:31.809Z,40.50
2022-08-31T16:33:59.431Z,42.12
2022-08-31T16:36:28.507Z,42.73
2022-08-31T16:38:57.006Z,43.34
2022-08-31T16:41:30.708Z,44.02
2022-08-31T16:44:21.338Z,45.55
2022-08-31T16:46:49.331Z,47.25
2022-08-31T16:49:36.393Z,47.85
2022-08-31T16:52:09.920Z,49.80
2022-08-31T16:54:45.044Z,50.91
2022-08-31T16:57:19.079Z,50.91
2022-08-31T16:59:48.771Z,53.39
2022-08-31T17:02:18.457Z,53.55
2022-08-31T17:04:54.585Z,54.94
2022-08-31T17:07:24.661Z,53.26
2022-08-31T17:10:07.505Z,52.62
2022-08-31T17:12:38.471Z,53.52
2022-08-31T17:15:08.958Z,54.40
2022-08-31T17:17:36.487Z,58.52
2022-08-31T17:20:05.201Z,58.46
2022-08-31T17:22:33.726Z,59.36
2022-08-31T17:25:04.425Z,59.97
2022-08-31T17:27:35.111Z,58.17
2022-08-31T17:30:07.269Z,59.77
2022-08-31T17:32:39.352Z,59.82
2022-08-31T17:35:18.236Z,61.92
2022-08-31T17:37:47.928Z,62.18
2022-08-31T17:40:16.784Z,61.16
2022-08-31T17:42:44.516Z,60.27
2022-08-31T17:45:13.018Z,58.93
2022-08-31T17:47:40.497Z,61.73
2022-08-31T17:50:08.589Z,62.25
2022-08-31T17:52:36.319Z,62.33
2022-08-31T17:55:04.234Z,63.91
2022-08-31T17:57:31.795Z,63.04
2022-08-31T17:59:59.880Z,63.12
2022-08-31T18:02:34.604Z,64.09
2022-08-31T18:05:11.598Z,64.04
2022-08-31T18:07:41.001Z,63.93
2022-08-31T18:10:10.263Z,62.66
2022-08-31T18:12:41.729Z,62.86
2022-08-31T18:15:12.944Z,61.52
2022-08-31T18:17:40.704Z,62.95
2022-08-31T18:20:09.328Z,61.77
2022-08-31T18:22:37.060Z,60.33
2022-08-31T18:25:05.125Z,60.69
2022-08-31T18:27:32.760Z,61.67
2022-08-31T18:30:01.157Z,62.94
2022-08-31T18:32:34.152Z,62.00
2022-08-31T18:35:06.057Z,60.16
2022-08-31T18:37:33.657Z,59.04
2022-08-31T18:40:19.861Z,59.95
2022-08-31T18:43:06.375Z,60.13
2022-08-31T18:45:39.081Z,60.09
2022-08-31T18:48:24.433Z,61.05
2022-08-31T18:50:55.586Z,61.62
2022-08-31T18:53:27.502Z,62.13
2022-08-31T18:56:10.858Z,61.57
2022-08-31T18:58:40.152Z,62.40
2022-08-31T19:01:10.452Z,62.39
2022-08-31T19:03:39.576Z,63.22
2022-08-31T19:06:08.268Z,62.34
2022-08-31T19:08:36.206Z,61.33
2022-08-31T19:11:08.043Z,61.28
2022-08-31T19:13:36.047Z,62.04
2022-08-31T19:16:14.834Z,60.86
2022-08-31T19:18:44.423Z,61.30
2022-08-31T19:21:25.764Z,62.44
2022-08-31T19:23:55.341Z,61.47
2022-08-31T19:26:27.225Z,61.79
2022-08-31T19:28:56.725Z,62.58
2022-08-31T19:31:27.652Z,62.90
2022-08-31T19:33:57.053Z,61.92
2022-08-31T19:36:27.298Z,62.58
2022-08-31T19:38:56.280Z,63.05
2022-08-31T19:41:26.396Z,62.60
2022-08-31T19:44:07.248Z,62.73
2022-08-31T19:46:39.489Z,63.62
2022-08-31T19:49:11.683Z,63.33
2022-08-31T19:51:51.854Z,63.46
2022-08-31T19:54:21.198Z,64.95
2022-08-31T19:56:49.041Z,64.52
2022-08-31T19:59:20.094Z,63.19
2022-08-31T20:01:53.185Z,64.33
2022-08-31T20:04:26.892Z,64.77
2022-08-31T20:06:55.702Z,64.55
2022-08-31T20:09:25.501Z,64.63
2022-08-31T20:11:56.810Z,65.31
2022-08-31T20:14:24.660Z,66.40
2022-08-31T20:16:52.775Z,66.62
2022-08-31T20:19:25.182Z,67.23
2022-08-31T20:21:55.763Z,66.30
2022-08-31T20:24:26.822Z,67.27
2022-08-31T20:27:01.699Z,67.58
2022-08-31T20:29:38.746Z,67.02
2022-08-31T20:32:08.052Z,67.06
2022-08-31T20:34:37.320Z,67.04
2022-08-31T20:37:05.141Z,66.89
2022-08-31T20:39:35.354Z,66.64
2022-08-31T20:42:03.795Z,66.45
2022-08-31T20:44:35.030Z,66.10
2022-08-31T20:47:26.162Z,66.82
2022-08-31T20:49:56.989Z,66.51
2022-08-31T20:52:31.893Z,65.43
2022-08-31T20:55:03.810Z,65.83
2022-08-31T20:57:33.950Z,66.35
2022-08-31T21:00:06.055Z,66.52
2022-08-31T21:02:34.881Z,66.27
2022-08-31T21:05:33.927Z,65.89
2022-08-31T21:07:57.490Z,66.06
2022-08-31T21:10:36.549Z,66.68
2022-08-31T21:13:10.063Z,68.21
2022-08-31T21:15:46.179Z,68.18
2022-08-31T21:18:19.153Z,67.85
2022-08-31T21:20:47.337Z,67.93
2022-08-31T21:23:15.477Z,68.06
2022-08-31T21:25:45.823Z,67.46
2022-08-31T21:28:17.426Z,66.96
2022-08-31T21:30:49.595Z,65.97
2022-08-31T21:33:18.492Z,66.04
2022-08-31T21:35:46.402Z,65.46
2022-08-31T21:38:14.237Z,65.49
2022-08-31T21:40:50.569Z,64.23
2022-08-31T21:43:19.466Z,64.24
2022-08-31T21:45:48.292Z,64.50
2022-08-31T21:48:25.994Z,64.43
2022-08-31T21:50:54.733Z,65.05
2022-08-31T21:53:28.426Z,65.20
2022-08-31T21:55:56.221Z,65.56
2022-08-31T21:58:23.700Z,65.31
2022-08-31T22:00:51.248Z,64.84
2022-08-31T22:03:21.213Z,65.41
2022-08-31T22:05:49.230Z,65.66
2022-08-31T22:08:17.983Z,65.29
2022-08-31T22:10:45.900Z,66.20
2022-08-31T22:13:13.485Z,65.34
2022-08-31T22:15:42.713Z,65.37
2022-08-31T22:18:58.138Z,65.52
2022-08-31T22:20:59.176Z,65.64
2022-08-31T22:23:28.423Z,65.85
2022-08-31T22:25:56.417Z,66.17
2022-08-31T22:28:27.802Z,66.20
2022-08-31T22:30:56.527Z,65.89
2022-08-31T22:33:24.586Z,66.71
2022-08-31T22:35:52.208Z,65.90
2022-08-31T22:38:20.119Z,66.79
2022-08-31T22:40:50.010Z,66.58
2022-08-31T22:43:18.034Z,66.04
2022-08-31T22:45:48.812Z,66.29
2022-08-31T22:48:17.142Z,66.67
2022-08-31T22:50:44.779Z,66.69
2022-08-31T22:53:12.594Z,67.23
2022-08-31T22:55:41.259Z,67.98
2022-08-31T22:58:09.316Z,69.07
2022-08-31T23:00:37.178Z,68.78
2022-08-31T23:03:05.153Z,68.76
2022-08-31T23:05:32.701Z,69.50
2022-08-31T23:08:00.541Z,69.56
2022-08-31T23:10:28.536Z,69.59
2022-08-31T23:12:57.209Z,70.17
2022-08-31T23:15:26.138Z,70.68
2022-08-31T23:17:53.805Z,70.69
2022-08-31T23:20:24.499Z,71.28
2022-08-31T23:22:55.130Z,71.31
2022-08-31T23:25:24.987Z,71.50
2022-08-31T23:27:53.489Z,72.22
2022-08-31T23:30:24.761Z,71.97
2022-08-31T23:32:53.282Z,72.72
2022-08-31T23:35:22.102Z,73.21
2022-08-31T23:37:50.022Z,73.22
2022-08-31T23:40:17.690Z,73.44
2022-08-31T23:42:45.507Z,73.22
2022-08-31T23:45:13.026Z,73.14
2022-08-31T23:47:40.617Z,72.91
2022-08-31T23:50:10.151Z,73.08
2022-08-31T23:52:41.541Z,73.15
2022-08-31T23:55:11.631Z,73.11
2022-08-31T23:57:40.282Z,73.16
